Time;durP1;ratioP1;P1;durP2;ratioP2;P2;SDS_P1;SDS_P2;PMS_P1;PMS_P2;Temp;Humidity;BMP_temperature;BMP_pressure;BME280_temperature;BME280_humidity;BME280_pressure;Samples;Min_cycle;Max_cycle;Signal;HPM_P1;HPM_P2
2024/04/02 00:01:27;;;;;;;;;;;;;;;23.42;44.30;93494.97;5048435;28;7040;-61
2024/04/02 00:04:13;;;;;;;;;;;;;;;23.41;43.99;93489.97;5089540;28;7105;-61
2024/04/02 00:06:39;;;;;;;;;;;;;;;23.43;44.27;93501.16;5082355;28;8607;-62
2024/04/02 00:09:11;;;;;;;;;;;;;;;23.35;44.13;93492.06;5093741;28;7102;-61
2024/04/02 00:11:42;;;;;;;;;;;;;;;23.41;43.63;93504.44;5089068;28;7057;-61
2024/04/02 00:14:11;;;;;;;;;;;;;;;23.43;44.22;93506.66;5068168;28;7089;-61
2024/04/02 00:16:40;;;;;;;;;;;;;;;23.38;43.98;93496.50;5072988;28;7508;-61
2024/04/02 00:19:07;;;;;;;;;;;;;;;23.36;44.29;93502.50;5067319;28;7057;-62
2024/04/02 00:21:35;;;;;;;;;;;;;;;23.42;44.13;93507.94;5073128;28;9384;-61
2024/04/02 00:24:02;;;;;;;;;;;;;;;23.35;43.98;93509.25;5063001;28;7017;-61
2024/04/02 00:26:31;;;;;;;;;;;;;;;23.40;43.39;93513.94;5069484;28;7210;-61
2024/04/02 00:28:57;;;;;;;;;;;;;;;23.37;43.88;93519.72;5066301;28;9039;-62
2024/04/02 00:31:24;;;;;;;;;;;;;;;23.41;43.96;93523.66;5068715;28;7293;-63
2024/04/02 00:33:50;;;;;;;;;;;;;;;23.36;43.61;93515.50;5072945;28;7034;-63
2024/04/02 00:36:16;;;;;;;;;;;;;;;23.43;43.76;93525.88;5083730;28;6949;-63
2024/04/02 00:38:42;;;;;;;;;;;;;;;23.37;43.92;93525.94;5066496;28;8172;-63
2024/04/02 00:41:11;;;;;;;;;;;;;;;23.42;43.73;93535.38;5069164;28;9124;-63
2024/04/02 00:43:37;;;;;;;;;;;;;;;23.40;44.14;93541.38;5055673;28;9377;-63
2024/04/02 00:46:03;;;;;;;;;;;;;;;23.42;43.83;93538.13;5076529;28;7444;-63
2024/04/02 00:48:29;;;;;;;;;;;;;;;23.40;43.65;93557.09;5077274;28;7318;-63
2024/04/02 00:50:58;;;;;;;;;;;;;;;23.32;43.77;93545.91;5068124;28;7016;-63
2024/04/02 00:53:25;;;;;;;;;;;;;;;23.40;43.89;93559.84;5068442;28;7254;-63
2024/04/02 00:56:18;;;;;;;;;;;;;;;23.41;44.21;93564.81;5085360;28;7064;-63
2024/04/02 00:58:46;;;;;;;;;;;;;;;23.42;43.57;93565.56;5071644;28;7008;-62
2024/04/02 01:01:21;;;;;;;;;;;;;;;23.42;44.03;93565.56;5079530;28;9693;-63
2024/04/02 01:03:50;;;;;;;;;;;;;;;23.36;44.03;93565.59;5071430;28;6921;-62
2024/04/02 01:06:23;;;;;;;;;;;;;;;23.39;43.73;93569.31;5074055;28;7281;-62
2024/04/02 01:09:17;;;;;;;;;;;;;;;23.41;43.45;93569.56;5068500;28;9234;-63
2024/04/02 01:11:53;;;;;;;;;;;;;;;23.34;43.96;93565.38;5072345;28;8763;-62
2024/04/02 01:14:51;;;;;;;;;;;;;;;23.40;43.44;93582.56;5062536;28;7076;-63
2024/04/02 01:17:31;;;;;;;;;;;;;;;23.36;43.93;93573.13;5076718;28;7130;-63
2024/04/02 01:19:57;;;;;;;;;;;;;;;23.34;43.88;93570.88;5078766;28;7346;-63
2024/04/02 01:22:54;;;;;;;;;;;;;;;23.37;44.06;93583.56;5096250;28;7069;-62
2024/04/02 01:29:03;;;;;;;;;;;;;;;23.37;43.76;93586.31;5011455;28;7319;-63
2024/04/02 01:32:03;;;;;;;;;;;;;;;23.39;43.84;93596.75;5016912;28;7899;-62
2024/04/02 01:34:28;;;;;;;;;;;;;;;23.34;43.82;93592.81;5018385;28;7384;-63
2024/04/02 01:36:54;;;;;;;;;;;;;;;23.36;43.75;93606.03;5006896;28;7256;-63
2024/04/02 01:39:21;;;;;;;;;;;;;;;23.30;43.89;93591.59;5015863;28;7854;-63
2024/04/02 01:41:47;;;;;;;;;;;;;;;23.35;44.10;93610.78;5009273;28;7754;-57
2024/04/02 01:44:46;;;;;;;;;;;;;;;23.35;44.15;93610.03;4998408;28;7581;-57
2024/04/02 01:47:25;;;;;;;;;;;;;;;23.35;43.67;93608.03;5012192;28;7414;-57
2024/04/02 01:49:53;;;;;;;;;;;;;;;23.28;43.99;93589.38;4998755;28;7035;-57
2024/04/02 01:52:28;;;;;;;;;;;;;;;23.35;44.01;93607.28;5015246;28;7013;-57
2024/04/02 01:55:03;;;;;;;;;;;;;;;23.33;43.83;93598.81;5033040;28;7046;-57
2024/04/02 01:57:59;;;;;;;;;;;;;;;23.34;43.99;93603.78;5013581;28;7204;-57
2024/04/02 02:00:28;;;;;;;;;;;;;;;23.33;43.54;93607.81;5000856;28;7436;-57
2024/04/02 02:02:54;;;;;;;;;;;;;;;23.30;44.21;93613.53;5067772;28;8993;-57
2024/04/02 02:05:25;;;;;;;;;;;;;;;23.32;43.84;93616.50;5085826;28;7838;-57
2024/04/02 02:08:09;;;;;;;;;;;;;;;23.35;43.48;93621.75;5075888;28;7041;-57
2024/04/02 02:10:56;;;;;;;;;;;;;;;23.36;43.87;93628.00;5058970;28;7042;-56
2024/04/02 02:13:23;;;;;;;;;;;;;;;23.33;43.89;93626.25;5058697;28;7268;-57
2024/04/02 02:16:17;;;;;;;;;;;;;;;23.34;44.18;93622.28;5074510;28;7010;-57
2024/04/02 02:18:57;;;;;;;;;;;;;;;23.25;43.80;93615.81;5081137;28;7553;-57
2024/04/02 02:21:29;;;;;;;;;;;;;;;23.25;43.73;93615.06;5061004;28;7325;-57
2024/04/02 02:24:04;;;;;;;;;;;;;;;23.33;43.88;93624.28;5106053;28;6992;-56
2024/04/02 02:30:22;;;;;;;;;;;;;;;23.32;43.45;93622.00;5055528;28;7035;-57
2024/04/02 02:32:48;;;;;;;;;;;;;;;23.34;43.63;93622.28;5066749;28;7241;-57
2024/04/02 02:35:14;;;;;;;;;;;;;;;23.25;43.44;93610.34;5039945;28;7309;-57
2024/04/02 02:37:42;;;;;;;;;;;;;;;23.30;43.61;93619.78;5073861;28;6951;-58
2024/04/02 02:40:08;;;;;;;;;;;;;;;23.29;43.69;93618.31;5075428;28;7069;-57
2024/04/02 02:42:34;;;;;;;;;;;;;;;23.31;43.68;93617.78;5088997;28;7083;-57
2024/04/02 02:45:17;;;;;;;;;;;;;;;23.34;43.67;93628.50;5095790;28;9407;-57
2024/04/02 02:47:50;;;;;;;;;;;;;;;23.32;43.77;93622.00;5091708;28;7225;-57
2024/04/02 02:50:22;;;;;;;;;;;;;;;23.24;43.79;93611.63;5075840;28;8665;-57
2024/04/02 02:53:45;;;;;;;;;;;;;;;23.33;43.92;93620.75;5063099;28;7316;-58
2024/04/02 02:57:07;;;;;;;;;;;;;;;23.29;44.08;93634.75;5014298;28;8850;-59
2024/04/02 02:59:33;;;;;;;;;;;;;;;23.24;43.84;93630.81;4991538;28;6988;-59
2024/04/02 03:02:14;;;;;;;;;;;;;;;23.32;43.67;93638.47;4987901;28;7700;-59
2024/04/02 03:04:56;;;;;;;;;;;;;;;23.29;43.56;93634.75;4977583;28;7035;-59
2024/04/02 03:07:36;;;;;;;;;;;;;;;23.29;43.55;93645.00;4990901;28;9082;-59
2024/04/02 03:10:31;;;;;;;;;;;;;;;23.29;43.41;93642.25;4976760;28;9335;-59
2024/04/02 03:13:00;;;;;;;;;;;;;;;23.21;43.69;93629.09;4951261;28;7093;-59
2024/04/02 03:15:30;;;;;;;;;;;;;;;23.30;44.04;93633.50;4950832;28;7413;-59
2024/04/02 03:17:57;;;;;;;;;;;;;;;23.27;43.57;93635.25;4946052;28;7187;-59
2024/04/02 03:20:23;;;;;;;;;;;;;;;23.30;43.29;93641.72;4951478;28;7221;-59
2024/04/02 03:22:49;;;;;;;;;;;;;;;23.24;43.68;93647.28;4950782;28;7354;-59
2024/04/02 03:25:15;;;;;;;;;;;;;;;23.30;43.88;93657.44;4949852;28;7102;-58
2024/04/02 03:27:41;;;;;;;;;;;;;;;23.30;43.23;93663.69;4949219;28;7116;-59
2024/04/02 03:30:10;;;;;;;;;;;;;;;23.22;43.34;93647.06;4965951;28;7053;-59
2024/04/02 03:32:37;;;;;;;;;;;;;;;23.30;43.89;93663.69;4969749;28;9169;-59
2024/04/02 03:35:03;;;;;;;;;;;;;;;23.23;43.65;93650.50;5002162;28;7200;-59
2024/04/02 03:37:29;;;;;;;;;;;;;;;23.30;43.44;93660.19;5029169;28;8785;-59
2024/04/02 03:39:55;;;;;;;;;;;;;;;23.27;43.49;93658.47;5032696;28;7462;-59
2024/04/02 03:42:38;;;;;;;;;;;;;;;23.30;43.54;93662.94;5025701;28;7031;-59
2024/04/02 03:45:06;;;;;;;;;;;;;;;23.15;43.24;93646.84;5044635;28;7300;-59
2024/04/02 03:47:33;;;;;;;;;;;;;;;23.28;43.21;93666.19;5007398;28;9423;-59
2024/04/02 03:49:59;;;;;;;;;;;;;;;23.29;43.47;93667.69;5079696;28;7040;-59
2024/04/02 03:52:27;;;;;;;;;;;;;;;23.20;43.53;93654.31;5068758;28;9014;-59
2024/04/02 03:54:55;;;;;;;;;;;;;;;23.19;43.29;93658.28;5088723;28;9620;-59
2024/04/02 03:57:25;;;;;;;;;;;;;;;23.19;43.30;93661.78;5075472;28;7004;-59
2024/04/02 03:59:54;;;;;;;;;;;;;;;23.26;43.58;93663.22;5064778;28;7115;-59
2024/04/02 04:02:35;;;;;;;;;;;;;;;23.28;43.58;93671.69;5078302;28;7026;-60
2024/04/02 04:05:09;;;;;;;;;;;;;;;23.21;43.18;93667.50;5036644;28;7249;-60
2024/04/02 04:08:11;;;;;;;;;;;;;;;23.26;43.64;93679.69;5060904;28;7038;-60
2024/04/02 04:10:41;;;;;;;;;;;;;;;23.20;43.58;93666.03;4994958;28;7101;-60
2024/04/02 04:13:24;;;;;;;;;;;;;;;23.27;43.40;93685.91;5001255;28;7208;-60
2024/04/02 04:16:22;;;;;;;;;;;;;;;23.27;43.48;93681.91;5009587;28;7509;-60
2024/04/02 04:19:22;;;;;;;;;;;;;;;23.25;43.19;93694.63;4995941;28;7328;-60
2024/04/02 04:22:20;;;;;;;;;;;;;;;23.25;43.12;93700.88;4942674;28;7243;-60
2024/04/02 04:25:01;;;;;;;;;;;;;;;23.27;43.54;93702.38;4956976;28;9117;-60
2024/04/02 04:27:47;;;;;;;;;;;;;;;23.23;43.40;93716.34;4965352;28;7145;-59
2024/04/02 04:30:41;;;;;;;;;;;;;;;23.23;43.81;93719.84;4967871;28;7372;-60
2024/04/02 04:33:08;;;;;;;;;;;;;;;23.27;43.58;93719.59;4973239;28;7060;-61
2024/04/02 04:35:36;;;;;;;;;;;;;;;23.34;43.59;93726.56;4964643;28;9418;-62
2024/04/02 04:38:04;;;;;;;;;;;;;;;23.38;44.73;93719.50;4972497;28;9845;-61
2024/04/02 04:40:30;;;;;;;;;;;;;;;23.45;45.39;93729.19;4957031;28;7107;-61
2024/04/02 04:43:05;;;;;;;;;;;;;;;23.61;50.44;93747.50;4961653;28;7003;-63
2024/04/02 04:46:01;;;;;;;;;;;;;;;23.89;49.98;93750.72;5024175;28;6964;-62
2024/04/02 04:48:47;;;;;;;;;;;;;;;24.14;49.68;93754.97;5028328;28;7321;-61
2024/04/02 04:51:13;;;;;;;;;;;;;;;24.30;47.50;93762.31;5040373;28;7291;-60
2024/04/02 04:53:42;;;;;;;;;;;;;;;24.40;44.16;93754.47;5025180;28;7225;-61
2024/04/02 04:56:10;;;;;;;;;;;;;;;24.47;44.05;93734.59;5016334;28;7021;-61
2024/04/02 04:58:36;;;;;;;;;;;;;;;24.26;41.83;93734.38;5077391;28;7152;-59
2024/04/02 05:01:08;;;;;;;;;;;;;;;24.00;41.67;93734.13;5059025;28;9405;-60
2024/04/02 05:03:41;;;;;;;;;;;;;;;23.71;41.67;93734.94;5070261;28;8489;-60
2024/04/02 05:06:26;;;;;;;;;;;;;;;23.56;42.40;93748.28;5059230;28;9076;-60
2024/04/02 05:09:00;;;;;;;;;;;;;;;23.43;42.69;93756.38;5039775;28;7465;-60
2024/04/02 05:11:32;;;;;;;;;;;;;;;23.39;43.45;93758.66;5086078;28;8696;-60
2024/04/02 05:14:28;;;;;;;;;;;;;;;23.39;43.05;93764.91;5049519;28;6971;-60
2024/04/02 05:16:56;;;;;;;;;;;;;;;23.43;43.70;93772.84;5062179;28;8929;-60
2024/04/02 05:19:42;;;;;;;;;;;;;;;23.44;43.56;93777.09;5055129;28;7414;-59
2024/04/02 05:22:28;;;;;;;;;;;;;;;23.47;44.20;93789.81;5049603;28;7048;-59
2024/04/02 05:24:57;;;;;;;;;;;;;;;23.46;43.99;93794.56;5068944;28;7254;-59
2024/04/02 05:27:23;;;;;;;;;;;;;;;23.40;44.06;93787.63;5064370;28;7081;-59
2024/04/02 05:29:58;;;;;;;;;;;;;;;23.43;43.63;93787.31;5065044;28;7669;-59
2024/04/02 05:32:30;;;;;;;;;;;;;;;23.39;42.92;93783.38;5072416;28;7335;-59
2024/04/02 05:34:58;;;;;;;;;;;;;;;23.35;42.57;93799.38;5068644;28;7038;-59
2024/04/02 05:37:24;;;;;;;;;;;;;;;23.33;43.39;93810.09;5069582;28;8823;-60
2024/04/02 05:39:50;;;;;;;;;;;;;;;23.31;43.89;93807.84;5069805;28;7387;-62
2024/04/02 05:42:21;;;;;;;;;;;;;;;23.34;43.35;93819.84;5075263;28;7139;-60
2024/04/02 05:44:47;;;;;;;;;;;;;;;23.32;43.59;93814.81;5090698;28;8941;-61
2024/04/02 05:47:16;;;;;;;;;;;;;;;23.29;43.62;93812.34;5065101;28;7022;-61
2024/04/02 05:50:04;;;;;;;;;;;;;;;23.32;43.71;93822.31;5064636;28;7312;-61
2024/04/02 05:52:47;;;;;;;;;;;;;;;23.27;43.78;93827.31;5078792;28;6997;-59
2024/04/02 05:55:22;;;;;;;;;;;;;;;23.31;43.44;93829.81;5094910;28;7102;-62
2024/04/02 05:57:48;;;;;;;;;;;;;;;23.21;44.02;93810.16;5071725;28;7247;-61
2024/04/02 06:00:30;;;;;;;;;;;;;;;23.34;43.75;93830.81;5066247;28;7110;-61
2024/04/02 06:03:07;;;;;;;;;;;;;;;23.32;43.95;93827.78;5070155;28;8843;-60
2024/04/02 06:05:35;;;;;;;;;;;;;;;23.36;43.74;93837.28;5071176;28;7181;-61
2024/04/02 06:08:03;;;;;;;;;;;;;;;23.36;43.45;93831.06;5090148;28;8716;-61
2024/04/02 06:10:42;;;;;;;;;;;;;;;23.30;43.72;93825.56;5042605;28;7119;-60
2024/04/02 06:13:14;;;;;;;;;;;;;;;23.29;43.63;93834.31;5078079;28;9221;-56
2024/04/02 06:15:48;;;;;;;;;;;;;;;23.32;43.88;93839.50;5074801;28;7048;-55
2024/04/02 06:18:45;;;;;;;;;;;;;;;23.35;44.08;93846.78;5072575;28;7448;-56
2024/04/02 06:21:19;;;;;;;;;;;;;;;23.31;43.73;93840.03;5038793;28;7042;-56
2024/04/02 06:24:00;;;;;;;;;;;;;;;23.30;43.86;93835.78;5063655;28;7306;-56
2024/04/02 06:26:26;;;;;;;;;;;;;;;23.34;43.54;93844.53;5075924;28;9097;-56
2024/04/02 06:29:20;;;;;;;;;;;;;;;23.37;43.77;93857.22;5077602;28;7247;-56
2024/04/02 06:32:00;;;;;;;;;;;;;;;23.33;43.30;93859.47;5019437;28;7254;-59
2024/04/02 06:34:28;;;;;;;;;;;;;;;23.40;43.80;93864.47;5016007;28;7101;-59
2024/04/02 06:36:54;;;;;;;;;;;;;;;23.35;44.17;93862.47;5016924;28;7149;-59
2024/04/02 06:39:19;;;;;;;;;;;;;;;23.43;44.84;93861.44;5007532;28;7220;-59
2024/04/02 06:41:47;;;;;;;;;;;;;;;23.48;45.71;93868.13;5019798;28;7207;-59
2024/04/02 06:44:14;;;;;;;;;;;;;;;23.68;52.33;93879.50;5011566;28;8438;-59
2024/04/02 06:46:50;;;;;;;;;;;;;;;24.00;53.05;93879.72;5020060;28;7079;-59
2024/04/02 06:49:19;;;;;;;;;;;;;;;24.20;54.18;93868.34;5016252;28;7377;-58
2024/04/02 06:51:49;;;;;;;;;;;;;;;24.46;52.66;93884.31;5002120;28;7335;-59
2024/04/02 06:54:16;;;;;;;;;;;;;;;24.61;52.11;93879.16;5003036;28;7507;-59
2024/04/02 06:56:43;;;;;;;;;;;;;;;24.63;53.01;93855.41;5028098;28;9305;-57
2024/04/02 06:59:22;;;;;;;;;;;;;;;24.82;46.27;93869.19;4997789;28;7072;-58
2024/04/02 07:02:03;;;;;;;;;;;;;;;24.85;44.41;93848.16;4996060;28;6993;-58
2024/04/02 07:08:00;;;;;;;;;;;;;;;24.08;43.09;93858.69;5020580;28;7290;-56
2024/04/02 07:10:28;;;;;;;;;;;;;;;23.86;43.82;93867.84;5073568;28;7020;-56
2024/04/02 07:13:07;;;;;;;;;;;;;;;23.66;43.78;93873.00;5073579;28;7171;-56
2024/04/02 07:15:40;;;;;;;;;;;;;;;23.61;43.93;93868.28;5051755;28;7066;-56
2024/04/02 07:18:23;;;;;;;;;;;;;;;23.56;44.49;93877.31;5073640;28;8903;-56
2024/04/02 07:21:09;;;;;;;;;;;;;;;23.52;44.69;93880.34;5079171;28;7030;-57
2024/04/02 07:23:36;;;;;;;;;;;;;;;23.52;45.12;93885.06;5073780;28;7101;-58
2024/04/02 07:26:11;;;;;;;;;;;;;;;23.53;44.75;93886.56;5068183;28;7356;-58
2024/04/02 07:28:48;;;;;;;;;;;;;;;23.61;44.99;93893.00;5074050;28;9421;-58
2024/04/02 07:31:24;;;;;;;;;;;;;;;23.67;44.88;93904.69;5058968;28;7123;-59
2024/04/02 07:33:52;;;;;;;;;;;;;;;23.71;45.05;93900.41;5094152;28;7767;-59
2024/04/02 07:36:20;;;;;;;;;;;;;;;23.73;45.41;93902.66;5065423;28;7085;-59
2024/04/02 07:38:49;;;;;;;;;;;;;;;23.82;45.44;93905.06;5074055;28;7545;-59
2024/04/02 07:41:17;;;;;;;;;;;;;;;23.87;45.47;93907.03;5065598;28;7024;-59
2024/04/02 07:43:54;;;;;;;;;;;;;;;23.89;45.29;93907.28;5089259;28;7097;-59
2024/04/02 07:46:27;;;;;;;;;;;;;;;24.02;45.07;93917.66;5053733;28;7693;-58
2024/04/02 07:49:03;;;;;;;;;;;;;;;24.09;44.48;93909.66;5066464;28;7146;-59
2024/04/02 07:51:29;;;;;;;;;;;;;;;24.23;44.21;93919.50;5082169;28;7141;-59
2024/04/02 07:54:03;;;;;;;;;;;;;;;24.37;43.96;93914.91;5073024;28;7110;-59
2024/04/02 07:56:45;;;;;;;;;;;;;;;24.47;43.50;93925.03;5089951;28;7044;-59
2024/04/02 07:59:13;;;;;;;;;;;;;;;24.52;43.28;93920.75;5072622;28;7630;-59
2024/04/02 08:01:49;;;;;;;;;;;;;;;24.56;43.57;93916.47;5076632;28;6965;-59
2024/04/02 08:04:26;;;;;;;;;;;;;;;24.67;43.55;93930.09;5071722;28;7913;-60
2024/04/02 08:06:52;;;;;;;;;;;;;;;24.73;43.56;93926.56;5088147;28;7171;-59
2024/04/02 08:09:30;;;;;;;;;;;;;;;24.76;42.61;93931.78;5071596;28;9565;-58
2024/04/02 08:12:00;;;;;;;;;;;;;;;24.78;40.75;93937.50;5070335;28;7621;-58
2024/04/02 08:14:31;;;;;;;;;;;;;;;24.70;34.25;93936.56;5061070;28;7034;-59
2024/04/02 08:16:59;;;;;;;;;;;;;;;24.64;33.47;93938.66;5075447;28;7455;-58
2024/04/02 08:19:31;;;;;;;;;;;;;;;24.59;32.39;93933.94;5095647;28;7002;-59
2024/04/02 08:21:57;;;;;;;;;;;;;;;24.61;32.81;93945.91;5090219;28;7844;-59
2024/04/02 08:24:28;;;;;;;;;;;;;;;24.54;33.25;93940.22;5087639;28;7609;-59
2024/04/02 08:26:56;;;;;;;;;;;;;;;24.54;32.97;93945.72;5079184;28;7190;-59
2024/04/02 08:29:22;;;;;;;;;;;;;;;24.60;33.19;93938.91;5081572;28;6943;-59
2024/04/02 08:31:48;;;;;;;;;;;;;;;24.56;33.47;93938.44;5064756;28;7021;-56
2024/04/02 08:34:14;;;;;;;;;;;;;;;24.53;33.31;93933.97;5061551;28;7100;-56
2024/04/02 08:36:41;;;;;;;;;;;;;;;24.61;33.85;93942.41;5069188;28;7353;-56
2024/04/02 08:39:09;;;;;;;;;;;;;;;24.62;33.69;93941.88;5067394;28;8596;-56
2024/04/02 08:41:42;;;;;;;;;;;;;;;24.62;34.71;93941.88;5064585;28;7115;-57
2024/04/02 08:44:08;;;;;;;;;;;;;;;24.64;34.56;93944.16;5077014;28;7051;-56
2024/04/02 08:46:35;;;;;;;;;;;;;;;24.65;34.72;93945.63;5080745;28;9593;-57
2024/04/02 08:49:04;;;;;;;;;;;;;;;24.65;34.99;93946.38;5063776;28;6993;-56
2024/04/02 08:51:31;;;;;;;;;;;;;;;24.66;34.79;93953.34;5081036;28;8081;-56
2024/04/02 08:54:00;;;;;;;;;;;;;;;24.59;35.15;93947.69;5072345;28;8055;-56
2024/04/02 08:56:30;;;;;;;;;;;;;;;24.65;35.01;93954.63;5078718;28;9171;-56
2024/04/02 08:58:56;;;;;;;;;;;;;;;24.69;35.05;93957.81;5072894;28;8370;-56
2024/04/02 09:01:24;;;;;;;;;;;;;;;24.70;35.31;93958.56;5079850;28;7477;-56
2024/04/02 09:03:54;;;;;;;;;;;;;;;24.70;35.11;93953.81;5088669;28;7025;-57
2024/04/02 09:06:20;;;;;;;;;;;;;;;24.73;35.84;93956.81;5078184;28;7288;-56
2024/04/02 09:08:47;;;;;;;;;;;;;;;24.69;35.61;93948.81;5082039;28;7203;-57
2024/04/02 09:11:14;;;;;;;;;;;;;;;24.71;36.08;93963.56;5069884;28;7056;-57
2024/04/02 09:13:45;;;;;;;;;;;;;;;24.73;36.27;93961.03;5058324;28;8737;-56
2024/04/02 09:16:15;;;;;;;;;;;;;;;24.79;35.77;93968.53;5083326;28;7334;-56
2024/04/02 09:18:52;;;;;;;;;;;;;;;24.81;36.32;93974.25;5085303;28;7027;-57
2024/04/02 09:21:19;;;;;;;;;;;;;;;24.79;36.19;93972.03;5061169;28;9048;-57
2024/04/02 09:23:50;;;;;;;;;;;;;;;24.80;35.80;93967.25;5082504;28;7815;-57
2024/04/02 09:26:29;;;;;;;;;;;;;;;24.84;36.63;93971.19;5089563;28;7006;-57
2024/04/02 09:29:02;;;;;;;;;;;;;;;24.84;36.34;93965.69;5068196;28;7219;-56
2024/04/02 09:31:45;;;;;;;;;;;;;;;24.77;37.00;93962.78;5070924;28;7306;-56
2024/04/02 09:34:15;;;;;;;;;;;;;;;24.84;37.13;93973.94;5086865;28;6911;-57
2024/04/02 09:37:03;;;;;;;;;;;;;;;24.85;37.24;93971.94;5076184;28;7022;-57
2024/04/02 09:39:30;;;;;;;;;;;;;;;24.83;37.10;93960.72;5071210;28;7326;-57
2024/04/02 09:41:57;;;;;;;;;;;;;;;24.76;37.09;93944.78;5072082;28;7398;-58
2024/04/02 09:44:26;;;;;;;;;;;;;;;24.83;36.91;93953.22;5066476;28;6974;-58
2024/04/02 09:46:57;;;;;;;;;;;;;;;24.88;37.00;93954.44;5087809;28;7024;-57
2024/04/02 09:49:33;;;;;;;;;;;;;;;24.89;36.90;93961.41;5063436;28;7044;-58
2024/04/02 09:52:02;;;;;;;;;;;;;;;24.89;37.58;93964.91;5100298;28;9155;-58
2024/04/02 09:54:41;;;;;;;;;;;;;;;24.90;37.04;93968.41;5082895;28;7047;-58
2024/04/02 09:57:39;;;;;;;;;;;;;;;24.91;37.69;93965.13;5066559;28;8765;-58
2024/04/02 10:00:15;;;;;;;;;;;;;;;24.85;37.68;93953.44;5014666;28;6876;-58
2024/04/02 10:02:43;;;;;;;;;;;;;;;24.94;37.68;93961.34;4997566;28;7041;-58
2024/04/02 10:05:20;;;;;;;;;;;;;;;24.94;37.24;93964.13;5021615;28;7164;-59
2024/04/02 10:07:54;;;;;;;;;;;;;;;24.90;37.54;93960.16;4996154;28;7136;-59
2024/04/02 10:10:31;;;;;;;;;;;;;;;24.96;37.71;93975.34;5015528;28;7148;-58
2024/04/02 10:13:03;;;;;;;;;;;;;;;24.96;38.01;93969.84;5028063;28;9139;-58
2024/04/02 10:15:29;;;;;;;;;;;;;;;24.89;37.65;93958.66;5016866;28;9363;-58
2024/04/02 10:17:58;;;;;;;;;;;;;;;25.00;38.02;93975.03;5004794;28;6876;-58
2024/04/02 10:20:43;;;;;;;;;;;;;;;24.94;38.58;93977.13;5022342;28;7283;-58
2024/04/02 10:23:11;;;;;;;;;;;;;;;24.84;37.86;93960.19;5029972;28;9486;-57
2024/04/02 10:25:49;;;;;;;;;;;;;;;24.91;38.16;93972.63;5016801;28;7220;-58
2024/04/02 10:28:26;;;;;;;;;;;;;;;24.86;38.01;93970.69;4984584;28;7081;-58
2024/04/02 10:31:12;;;;;;;;;;;;;;;24.91;38.54;93967.13;5003893;28;7208;-58
2024/04/02 10:33:50;;;;;;;;;;;;;;;24.93;39.02;93970.09;5029769;28;9119;-58
2024/04/02 10:36:16;;;;;;;;;;;;;;;24.73;38.63;93941.78;5041405;28;6990;-59
2024/04/02 10:38:42;;;;;;;;;;;;;;;24.86;39.33;93967.94;5074683;28;7299;-58
2024/04/02 10:41:08;;;;;;;;;;;;;;;24.90;39.46;93968.41;5072171;28;7071;-58
2024/04/02 10:43:37;;;;;;;;;;;;;;;24.93;38.60;93964.59;5083456;28;7312;-58
2024/04/02 10:46:05;;;;;;;;;;;;;;;24.92;39.08;93963.88;5062291;28;9291;-58
2024/04/02 10:48:32;;;;;;;;;;;;;;;24.94;39.19;93961.34;5089192;28;6995;-58
2024/04/02 10:51:00;;;;;;;;;;;;;;;24.96;38.61;93969.09;5068818;28;9467;-58
2024/04/02 10:53:28;;;;;;;;;;;;;;;24.90;38.98;93958.16;5072978;28;7048;-61
2024/04/02 10:56:10;;;;;;;;;;;;;;;25.00;38.88;93975.78;5078866;28;7637;-61
2024/04/02 10:59:05;;;;;;;;;;;;;;;25.01;39.14;93980.03;5067201;28;7352;-62
2024/04/02 11:01:33;;;;;;;;;;;;;;;24.94;38.78;93971.63;4995458;28;7341;-61
2024/04/02 11:04:15;;;;;;;;;;;;;;;24.98;38.85;93983.06;5005215;28;6909;-61
2024/04/02 11:06:42;;;;;;;;;;;;;;;25.02;39.35;93983.53;5000325;28;7478;-61
2024/04/02 11:09:27;;;;;;;;;;;;;;;25.04;39.01;93990.00;5001168;28;7232;-63
2024/04/02 11:12:05;;;;;;;;;;;;;;;25.04;39.76;93986.50;5003268;28;7071;-62
2024/04/02 11:14:49;;;;;;;;;;;;;;;25.05;38.78;93993.50;4999119;28;7664;-62
2024/04/02 11:17:52;;;;;;;;;;;;;;;25.04;38.81;93992.00;4997786;28;8228;-62
2024/04/02 11:20:48;;;;;;;;;;;;;;;25.04;38.54;93981.00;4899148;29;7265;-62
2024/04/02 11:26:14;;;;;;;;;;;;;;;25.08;39.27;93989.72;4860312;29;7322;-63
2024/04/02 11:28:50;;;;;;;;;;;;;;;25.06;39.30;93987.47;4831631;29;8884;-63
2024/04/02 11:31:27;;;;;;;;;;;;;;;25.01;39.12;93987.56;4842131;29;7052;-63
2024/04/02 11:34:12;;;;;;;;;;;;;;;25.09;39.44;93999.47;4850267;29;7234;-62
2024/04/02 11:36:39;;;;;;;;;;;;;;;25.09;39.36;94000.22;4853948;29;7062;-62
2024/04/02 11:39:10;;;;;;;;;;;;;;;25.11;38.98;94002.44;4902372;29;7887;-63
2024/04/02 11:41:50;;;;;;;;;;;;;;;25.13;38.89;94002.66;4897626;29;7024;-64
2024/04/02 11:44:29;;;;;;;;;;;;;;;25.08;39.56;93992.47;4899450;29;7381;-63
2024/04/02 11:47:49;;;;;;;;;;;;;;;25.13;39.07;93991.66;4897150;29;7240;-63
2024/04/02 11:50:33;;;;;;;;;;;;;;;25.11;39.82;93999.69;4852239;29;7238;-62
2024/04/02 11:53:13;;;;;;;;;;;;;;;25.03;39.49;93991.28;4872831;29;7062;-63
2024/04/02 11:55:42;;;;;;;;;;;;;;;25.06;39.43;93997.72;4934215;29;7061;-63
2024/04/02 12:01:36;;;;;;;;;;;;;;;25.06;39.90;93994.97;4995621;28;7228;-64
2024/04/02 12:04:16;;;;;;;;;;;;;;;25.11;39.21;94007.94;4992615;28;9456;-63
2024/04/02 12:06:42;;;;;;;;;;;;;;;25.07;39.52;93996.50;5000119;28;7704;-64
2024/04/02 12:09:18;;;;;;;;;;;;;;;25.07;39.57;94010.25;4998101;28;7046;-64
2024/04/02 12:12:20;;;;;;;;;;;;;;;25.02;39.31;93995.28;4995434;28;7100;-63
2024/04/02 12:15:06;;;;;;;;;;;;;;;25.01;40.16;94004.78;4975250;28;7206;-64
2024/04/02 12:17:40;;;;;;;;;;;;;;;24.96;39.47;94002.84;4982221;28;7076;-64
2024/04/02 12:20:22;;;;;;;;;;;;;;;24.89;39.86;93999.91;4970987;28;7054;-64
2024/04/02 12:22:59;;;;;;;;;;;;;;;24.82;40.00;93994.97;4972167;28;7347;-63
2024/04/02 12:25:25;;;;;;;;;;;;;;;24.85;40.07;94002.22;4975632;28;7038;-63
2024/04/02 12:27:59;;;;;;;;;;;;;;;24.80;40.47;94001.00;4991346;28;7180;-64
2024/04/02 12:31:20;;;;;;;;;;;;;;;24.83;39.65;94005.47;4965852;28;7007;-64
2024/04/02 12:33:50;;;;;;;;;;;;;;;24.78;40.14;94008.28;5001738;28;7249;-65
2024/04/02 12:36:16;;;;;;;;;;;;;;;24.80;40.72;94006.50;5006041;28;8537;-66
2024/04/02 12:38:42;;;;;;;;;;;;;;;24.69;40.76;93996.31;4991815;28;8681;-64
2024/04/02 12:41:10;;;;;;;;;;;;;;;24.71;40.54;94002.06;4972746;28;7443;-63
2024/04/02 12:43:36;;;;;;;;;;;;;;;24.72;40.76;94000.06;4974227;28;7050;-63
2024/04/02 12:46:04;;;;;;;;;;;;;;;24.70;40.89;93997.06;5002883;28;9721;-63
2024/04/02 12:48:35;;;;;;;;;;;;;;;24.66;40.88;93991.84;5039734;28;7113;-64
2024/04/02 12:51:10;;;;;;;;;;;;;;;24.72;41.18;94000.06;5077041;28;7633;-64
2024/04/02 12:53:47;;;;;;;;;;;;;;;24.70;42.01;94002.56;5075872;28;7102;-63
2024/04/02 12:56:14;;;;;;;;;;;;;;;24.67;42.36;93995.34;5077000;28;7067;-63
2024/04/02 12:58:40;;;;;;;;;;;;;;;24.67;42.17;93989.84;5071006;28;8528;-62
2024/04/02 13:01:09;;;;;;;;;;;;;;;24.64;41.95;94004.63;5085021;28;7025;-62
2024/04/02 13:03:36;;;;;;;;;;;;;;;24.62;41.55;93996.16;5080706;28;7064;-67
2024/04/02 13:06:08;;;;;;;;;;;;;;;24.57;42.06;93977.69;5079520;28;9120;-72
2024/04/02 13:08:44;;;;;;;;;;;;;;;24.59;41.73;93989.69;5079202;28;7057;-69
2024/04/02 13:11:11;;;;;;;;;;;;;;;24.56;42.23;93985.19;5080909;28;9011;-66
2024/04/02 13:13:43;;;;;;;;;;;;;;;24.47;41.77;93974.53;5098788;28;7932;-70
2024/04/02 13:16:18;;;;;;;;;;;;;;;24.53;41.58;93974.50;5075819;28;7067;-66
2024/04/02 13:18:44;;;;;;;;;;;;;;;24.49;42.33;93977.50;5072065;28;7652;-67
2024/04/02 13:21:14;;;;;;;;;;;;;;;24.38;42.03;93952.84;5073834;28;7242;-69
2024/04/02 13:23:43;;;;;;;;;;;;;;;24.41;42.51;93967.59;5066237;28;7148;-67
2024/04/02 13:26:12;;;;;;;;;;;;;;;24.45;42.88;93977.03;5063502;28;7272;-65
2024/04/02 13:28:41;;;;;;;;;;;;;;;24.45;42.95;93968.78;5072172;28;7107;-74
2024/04/02 13:31:10;;;;;;;;;;;;;;;24.45;43.20;93977.03;5081299;28;7072;-73
2024/04/02 13:33:37;;;;;;;;;;;;;;;24.41;43.75;93973.84;5070831;28;9413;-73
2024/04/02 13:36:10;;;;;;;;;;;;;;;24.45;43.21;93984.53;5073841;28;6963;-74
2024/04/02 13:38:38;;;;;;;;;;;;;;;24.44;43.81;93970.06;5074298;28;7144;-62
2024/04/02 13:41:09;;;;;;;;;;;;;;;24.39;43.55;93957.09;5072147;28;7298;-62
2024/04/02 13:43:38;;;;;;;;;;;;;;;24.42;43.90;93956.09;5053370;28;7115;-62
2024/04/02 13:46:18;;;;;;;;;;;;;;;24.44;43.50;93953.56;5071338;28;7037;-62
2024/04/02 13:48:45;;;;;;;;;;;;;;;24.45;43.48;93963.28;5050103;28;9050;-62
2024/04/02 13:51:31;;;;;;;;;;;;;;;24.36;43.36;93938.88;5076394;28;7258;-62